createdAt,value
2023-08-16T00:00:53.571Z,15.90
2023-08-16T00:03:21.969Z,15.90
2023-08-16T00:05:50.792Z,15.90
2023-08-16T00:08:18.979Z,15.90
2023-08-16T00:10:47.590Z,15.80
2023-08-16T00:13:15.814Z,15.80
2023-08-16T00:15:45.441Z,15.80
2023-08-16T00:18:14.120Z,15.80
2023-08-16T00:20:42.321Z,15.80
2023-08-16T00:23:10.971Z,15.70
2023-08-16T00:25:40.804Z,15.70
2023-08-16T00:28:09.254Z,15.70
2023-08-16T00:30:37.975Z,15.60
2023-08-16T00:33:07.682Z,15.60
2023-08-16T00:35:35.982Z,15.60
2023-08-16T00:38:05.401Z,15.60
2023-08-16T00:40:33.584Z,15.60
2023-08-16T00:43:02.238Z,15.60
2023-08-16T00:45:31.054Z,15.60
2023-08-16T00:47:59.924Z,15.60
2023-08-16T00:50:29.538Z,15.50
2023-08-16T00:52:58.072Z,15.50
2023-08-16T00:55:26.668Z,15.50
2023-08-16T00:57:56.761Z,15.50
2023-08-16T01:00:25.058Z,15.50
2023-08-16T01:02:53.752Z,15.50
2023-08-16T01:05:22.646Z,15.50
2023-08-16T01:07:53.348Z,15.40
2023-08-16T01:10:24.826Z,15.40
2023-08-16T01:12:59.908Z,15.40
2023-08-16T01:15:33.505Z,15.40
2023-08-16T01:18:03.868Z,15.40
2023-08-16T01:20:35.501Z,15.40
2023-08-16T01:23:08.558Z,15.30
2023-08-16T01:25:49.661Z,15.30
2023-08-16T01:28:21.071Z,15.30
2023-08-16T01:30:50.304Z,15.30
2023-08-16T01:33:18.920Z,15.30
2023-08-16T01:35:47.403Z,15.30
2023-08-16T01:38:16.596Z,15.20
2023-08-16T01:40:52.686Z,15.30
2023-08-16T01:43:22.929Z,15.20
2023-08-16T01:45:53.265Z,15.30
2023-08-16T01:48:23.572Z,15.30
2023-08-16T01:50:52.114Z,15.30
2023-08-16T01:53:20.786Z,15.40
2023-08-16T01:55:49.029Z,15.40
2023-08-16T01:58:18.271Z,15.50
2023-08-16T02:00:47.933Z,15.50
2023-08-16T02:03:17.688Z,15.50
2023-08-16T02:05:45.977Z,15.40
2023-08-16T02:08:14.635Z,15.40
2023-08-16T02:10:43.257Z,15.40
2023-08-16T02:13:11.419Z,15.30
2023-08-16T02:15:39.884Z,15.30
2023-08-16T02:20:58.028Z,15.20
2023-08-16T02:23:26.741Z,15.20
2023-08-16T02:25:54.900Z,15.10
2023-08-16T02:28:26.487Z,15.10
2023-08-16T02:30:54.667Z,15.00
2023-08-16T02:33:24.423Z,15.00
2023-08-16T02:35:52.593Z,15.00
2023-08-16T02:38:20.861Z,15.10
2023-08-16T02:40:49.219Z,15.10
2023-08-16T02:43:17.873Z,15.10
2023-08-16T02:45:46.513Z,15.10
2023-08-16T02:48:15.290Z,15.10
2023-08-16T02:50:44.815Z,15.00
2023-08-16T02:53:13.728Z,15.00
2023-08-16T02:55:42.210Z,15.00
2023-08-16T02:58:10.665Z,15.00
2023-08-16T03:00:40.593Z,15.00
2023-08-16T03:03:08.808Z,15.00
2023-08-16T03:05:37.053Z,15.00
2023-08-16T03:08:06.997Z,14.90
2023-08-16T03:10:35.324Z,14.90
2023-08-16T03:13:05.555Z,14.90
2023-08-16T03:15:34.479Z,14.90
2023-08-16T03:18:03.103Z,14.80
2023-08-16T03:20:31.972Z,14.80
2023-08-16T03:23:00.832Z,14.80
2023-08-16T03:25:30.332Z,14.80
2023-08-16T03:27:59.457Z,14.80
2023-08-16T03:30:28.419Z,14.70
2023-08-16T03:32:56.710Z,14.70
2023-08-16T03:35:25.153Z,14.60
2023-08-16T03:37:53.322Z,14.60
2023-08-16T03:40:21.857Z,14.60
2023-08-16T03:42:51.556Z,14.60
2023-08-16T03:45:24.437Z,14.60
2023-08-16T03:47:53.462Z,14.60
2023-08-16T03:50:21.850Z,14.60
2023-08-16T03:52:50.231Z,14.60
2023-08-16T03:55:18.396Z,14.60
2023-08-16T03:57:46.979Z,14.60
2023-08-16T04:00:17.307Z,14.70
2023-08-16T04:02:45.554Z,14.70
2023-08-16T04:05:16.023Z,14.70
2023-08-16T04:07:44.201Z,14.70
2023-08-16T04:10:12.914Z,14.80
2023-08-16T04:12:41.129Z,14.80
2023-08-16T04:15:11.002Z,14.90
2023-08-16T04:17:41.404Z,15.00
2023-08-16T04:20:12.386Z,15.00
2023-08-16T04:22:40.596Z,15.10
2023-08-16T04:25:10.555Z,15.10
2023-08-16T04:27:40.002Z,15.10
2023-08-16T04:30:09.438Z,15.20
2023-08-16T04:32:38.472Z,15.20
2023-08-16T04:35:09.889Z,15.20
2023-08-16T04:37:38.346Z,15.30
2023-08-16T04:40:07.525Z,15.30
2023-08-16T04:42:37.023Z,15.40
2023-08-16T04:45:05.984Z,15.40
2023-08-16T04:47:34.155Z,15.50
2023-08-16T04:50:04.586Z,15.50
2023-08-16T04:52:34.693Z,15.60
2023-08-16T04:55:06.669Z,15.70
2023-08-16T04:57:35.978Z,15.70
2023-08-16T05:00:08.009Z,15.80
2023-08-16T05:02:41.602Z,15.90
2023-08-16T05:05:10.142Z,15.90
2023-08-16T05:07:41.465Z,16.00
2023-08-16T05:10:10.122Z,16.00
2023-08-16T05:12:38.831Z,16.10
2023-08-16T05:15:08.671Z,16.20
2023-08-16T05:17:37.089Z,16.20
2023-08-16T05:20:07.896Z,16.30
2023-08-16T05:22:36.692Z,16.40
2023-08-16T05:25:07.230Z,16.50
2023-08-16T05:27:35.760Z,16.50
2023-08-16T05:30:05.005Z,16.60
2023-08-16T05:32:33.226Z,16.70
2023-08-16T05:35:01.907Z,16.70
2023-08-16T05:37:30.440Z,16.70
2023-08-16T05:39:58.590Z,16.70
2023-08-16T05:42:29.821Z,16.70
2023-08-16T05:44:58.248Z,16.80
2023-08-16T05:47:26.632Z,16.80
2023-08-16T05:49:55.024Z,16.70
2023-08-16T05:52:23.226Z,16.70
2023-08-16T05:54:51.458Z,16.60
2023-08-16T05:57:19.697Z,16.60
2023-08-16T05:59:49.603Z,16.70
2023-08-16T06:02:18.127Z,16.60
2023-08-16T06:04:46.585Z,16.70
2023-08-16T06:07:14.901Z,16.70
2023-08-16T06:09:42.992Z,16.80
2023-08-16T06:12:11.678Z,16.80
2023-08-16T06:14:39.781Z,16.90
2023-08-16T06:17:09.359Z,17.00
2023-08-16T06:19:37.844Z,17.00
2023-08-16T06:22:06.419Z,17.10
2023-08-16T06:24:36.823Z,17.10
2023-08-16T06:27:05.136Z,17.10
2023-08-16T06:29:33.231Z,17.20
2023-08-16T06:32:01.746Z,17.20
2023-08-16T06:34:51.174Z,17.40
2023-08-16T06:37:20.010Z,17.70
2023-08-16T06:39:48.200Z,18.10
2023-08-16T06:42:16.555Z,18.30
2023-08-16T06:44:45.846Z,18.60
2023-08-16T06:47:14.008Z,19.00
2023-08-16T06:49:43.047Z,19.40
2023-08-16T06:52:12.614Z,19.80
2023-08-16T06:54:42.673Z,20.20
2023-08-16T06:57:12.994Z,20.50
2023-08-16T06:59:43.322Z,20.80
2023-08-16T07:02:12.518Z,21.10
2023-08-16T07:04:41.062Z,21.50
2023-08-16T07:07:09.595Z,21.70
2023-08-16T07:09:39.090Z,22.00
2023-08-16T07:12:08.927Z,22.20
2023-08-16T07:14:37.047Z,22.50
2023-08-16T07:17:06.406Z,22.70
2023-08-16T07:19:35.430Z,23.00
2023-08-16T07:22:03.552Z,23.20
2023-08-16T07:24:32.344Z,23.40
2023-08-16T07:27:02.048Z,23.60
2023-08-16T07:29:30.433Z,23.80
2023-08-16T07:31:59.102Z,24.00
2023-08-16T07:34:27.231Z,24.20
2023-08-16T07:36:55.917Z,24.20
2023-08-16T07:39:25.562Z,24.20
2023-08-16T07:41:54.517Z,24.30
2023-08-16T07:44:24.245Z,24.40
2023-08-16T07:46:52.417Z,24.60
2023-08-16T07:49:21.061Z,24.90
2023-08-16T07:51:49.312Z,25.10
2023-08-16T07:54:17.709Z,25.00
2023-08-16T07:56:46.275Z,25.00
2023-08-16T07:59:14.401Z,25.10
2023-08-16T08:01:44.395Z,25.20
2023-08-16T08:04:12.960Z,25.20
2023-08-16T08:06:41.114Z,25.20
2023-08-16T08:09:10.037Z,25.40
2023-08-16T08:11:39.225Z,25.60
2023-08-16T08:14:08.033Z,26.00
2023-08-16T08:16:36.195Z,26.30
2023-08-16T08:19:06.241Z,26.60
2023-08-16T08:21:35.352Z,26.80
2023-08-16T08:24:03.767Z,26.90
2023-08-16T08:26:32.612Z,27.00
2023-08-16T08:29:01.110Z,27.20
2023-08-16T08:31:29.405Z,27.40
2023-08-16T08:33:57.730Z,27.60
2023-08-16T08:36:27.449Z,28.00
2023-08-16T08:38:55.698Z,28.20
2023-08-16T08:41:31.052Z,28.30
2023-08-16T08:44:07.441Z,28.30
2023-08-16T08:46:36.183Z,28.30
2023-08-16T08:49:05.298Z,28.10
2023-08-16T08:51:37.858Z,28.10
2023-08-16T08:54:07.064Z,28.00
2023-08-16T08:56:36.208Z,28.00
2023-08-16T09:01:40.027Z,28.30
2023-08-16T09:04:12.159Z,28.40
2023-08-16T09:06:42.967Z,28.50
2023-08-16T09:09:11.636Z,28.70
2023-08-16T09:11:39.861Z,28.90
2023-08-16T09:14:08.753Z,28.80
2023-08-16T09:16:37.105Z,28.80
2023-08-16T09:19:13.821Z,28.80
2023-08-16T09:21:43.431Z,28.90
2023-08-16T09:24:12.166Z,29.10
2023-08-16T09:26:42.001Z,29.50
2023-08-16T09:29:10.147Z,30.30
2023-08-16T09:31:42.652Z,30.80
2023-08-16T09:34:11.711Z,31.30
2023-08-16T09:36:43.352Z,31.70
2023-08-16T09:39:13.404Z,31.90
2023-08-16T09:41:49.025Z,31.70
2023-08-16T09:44:18.112Z,31.50
2023-08-16T09:54:39.354Z,29.70
2023-08-16T09:59:41.396Z,29.00
2023-08-16T10:02:14.903Z,28.70
2023-08-16T10:07:16.280Z,28.30
2023-08-16T10:09:46.402Z,28.10
2023-08-16T10:12:14.478Z,28.10
2023-08-16T10:14:43.105Z,28.00
2023-08-16T10:17:15.013Z,27.90
2023-08-16T10:19:48.652Z,27.80
2023-08-16T10:24:57.474Z,27.60
2023-08-16T10:27:26.932Z,27.50
2023-08-16T10:32:33.654Z,27.30
2023-08-16T10:35:02.591Z,27.10
2023-08-16T10:37:30.913Z,26.90
2023-08-16T10:42:31.843Z,26.60
2023-08-16T10:45:00.228Z,26.50
2023-08-16T10:47:32.334Z,26.40
2023-08-16T10:50:02.095Z,26.30
2023-08-16T10:52:30.216Z,26.10
2023-08-16T10:55:01.170Z,26.10
2023-08-16T10:57:29.425Z,26.10
2023-08-16T11:00:07.166Z,26.10
2023-08-16T11:02:38.262Z,26.10
2023-08-16T11:05:09.252Z,26.10
2023-08-16T11:07:37.667Z,26.10
2023-08-16T11:10:08.718Z,26.10
2023-08-16T11:12:37.464Z,26.00
2023-08-16T11:15:06.096Z,26.00
2023-08-16T11:17:34.589Z,25.90
2023-08-16T11:20:05.940Z,25.90
2023-08-16T11:22:34.558Z,25.80
2023-08-16T11:25:03.053Z,25.70
2023-08-16T11:27:33.171Z,25.60
2023-08-16T11:30:02.287Z,25.50
2023-08-16T11:32:38.518Z,25.50
2023-08-16T11:35:09.273Z,25.40
2023-08-16T11:37:40.532Z,25.50
2023-08-16T11:40:10.904Z,25.50
2023-08-16T11:42:40.463Z,25.40
2023-08-16T11:45:20.175Z,25.50
2023-08-16T11:47:52.338Z,25.50
2023-08-16T11:50:21.353Z,25.40
2023-08-16T11:52:58.953Z,25.40
2023-08-16T11:55:30.820Z,25.20
2023-08-16T11:58:06.093Z,25.10
2023-08-16T12:00:35.511Z,25.00
2023-08-16T12:03:04.928Z,24.90
2023-08-16T12:05:37.498Z,24.90
2023-08-16T12:08:07.436Z,24.90
2023-08-16T12:10:36.649Z,24.80
2023-08-16T12:13:14.861Z,24.60
2023-08-16T12:15:43.905Z,24.40
2023-08-16T12:18:13.079Z,24.20
2023-08-16T12:20:42.253Z,24.10
2023-08-16T12:23:10.728Z,23.90
2023-08-16T12:25:40.060Z,23.80
2023-08-16T12:28:08.234Z,23.60
2023-08-16T12:30:37.881Z,23.50
2023-08-16T12:33:06.455Z,23.40
2023-08-16T12:35:41.553Z,23.30
2023-08-16T12:38:11.436Z,23.20
2023-08-16T12:40:39.798Z,23.20
2023-08-16T12:43:11.282Z,23.20
2023-08-16T12:45:42.089Z,23.20
2023-08-16T12:48:11.065Z,23.20
2023-08-16T12:50:40.184Z,23.40
2023-08-16T12:55:42.915Z,23.70
2023-08-16T12:58:21.396Z,23.90
2023-08-16T13:03:35.052Z,24.50
2023-08-16T13:08:49.742Z,24.80
2023-08-16T13:11:30.111Z,24.90
2023-08-16T13:14:03.404Z,25.00
2023-08-16T13:16:44.066Z,25.00
2023-08-16T13:21:54.201Z,25.10
2023-08-16T13:24:38.243Z,25.10
2023-08-16T13:37:25.658Z,26.20
2023-08-16T13:42:37.280Z,26.60
2023-08-16T13:47:40.587Z,26.90
2023-08-16T13:50:09.270Z,27.10
2023-08-16T13:52:37.403Z,27.30
2023-08-16T13:55:06.932Z,27.30
2023-08-16T13:57:35.045Z,27.50
2023-08-16T14:00:04.114Z,27.60
2023-08-16T14:02:41.911Z,27.80
2023-08-16T14:05:11.271Z,27.80
2023-08-16T14:07:43.160Z,27.70
2023-08-16T14:10:12.110Z,27.60
2023-08-16T14:12:41.073Z,27.50
2023-08-16T14:15:10.668Z,27.50
2023-08-16T14:17:38.837Z,27.20
2023-08-16T14:20:11.029Z,27.10
2023-08-16T14:22:39.169Z,26.90
2023-08-16T14:25:09.197Z,26.70
2023-08-16T14:27:38.175Z,26.70
2023-08-16T14:30:07.599Z,26.60
2023-08-16T14:32:36.176Z,26.50
2023-08-16T14:35:05.532Z,26.50
2023-08-16T14:37:35.016Z,26.40
2023-08-16T14:40:03.302Z,26.30
2023-08-16T14:42:32.032Z,26.30
2023-08-16T14:45:00.170Z,26.20
2023-08-16T14:47:28.982Z,26.30
2023-08-16T14:49:57.091Z,26.40
2023-08-16T14:52:25.416Z,26.40
2023-08-16T14:54:55.429Z,26.50
2023-08-16T14:57:26.655Z,26.60
2023-08-16T14:59:55.148Z,26.90
2023-08-16T15:02:23.702Z,27.10
2023-08-16T15:04:52.073Z,27.30
2023-08-16T15:07:22.975Z,27.50
2023-08-16T15:09:51.290Z,27.80
2023-08-16T15:12:21.204Z,28.10
2023-08-16T15:14:49.329Z,28.30
2023-08-16T15:17:17.443Z,28.50
2023-08-16T15:19:46.658Z,28.50
2023-08-16T15:22:15.917Z,28.50
2023-08-16T15:24:44.243Z,28.50
2023-08-16T15:27:13.791Z,28.50
2023-08-16T15:29:43.739Z,28.30
2023-08-16T15:32:12.000Z,28.10
2023-08-16T15:34:40.610Z,27.90
2023-08-16T15:37:09.022Z,27.80
2023-08-16T15:39:37.229Z,27.60
2023-08-16T15:42:06.833Z,27.50
2023-08-16T15:44:35.011Z,27.40
2023-08-16T15:47:05.233Z,27.30
2023-08-16T15:49:33.762Z,27.20
2023-08-16T15:52:03.464Z,27.10
2023-08-16T15:54:34.164Z,27.10
2023-08-16T15:57:02.327Z,27.10
2023-08-16T15:59:42.734Z,27.00
2023-08-16T16:02:17.907Z,26.90
2023-08-16T16:04:47.779Z,26.80
2023-08-16T16:07:17.230Z,26.70
2023-08-16T16:09:45.427Z,26.70
2023-08-16T16:12:13.637Z,26.60
2023-08-16T16:14:42.194Z,26.50
2023-08-16T16:17:26.634Z,26.40
2023-08-16T16:19:56.480Z,26.20
2023-08-16T16:22:24.687Z,26.00
2023-08-16T16:24:57.480Z,25.90
2023-08-16T16:27:25.890Z,25.70
2023-08-16T16:29:55.132Z,25.60
2023-08-16T16:32:25.134Z,25.50
2023-08-16T16:34:53.549Z,25.50
2023-08-16T16:37:21.954Z,25.40
2023-08-16T16:39:50.123Z,25.30
2023-08-16T16:42:18.971Z,25.20
2023-08-16T16:44:47.133Z,25.20
2023-08-16T16:47:16.934Z,25.20
2023-08-16T16:49:46.481Z,25.20
2023-08-16T16:52:15.113Z,25.20
2023-08-16T16:54:43.274Z,25.20
2023-08-16T16:57:11.456Z,25.10
2023-08-16T16:59:40.094Z,25.00
2023-08-16T17:02:09.159Z,24.90
2023-08-16T17:04:37.411Z,24.80
2023-08-16T17:07:09.187Z,24.70
2023-08-16T17:09:37.828Z,24.70
2023-08-16T17:12:06.891Z,24.60
2023-08-16T17:14:35.473Z,24.50
2023-08-16T17:17:03.877Z,24.50
2023-08-16T17:19:32.160Z,24.40
2023-08-16T17:22:00.317Z,24.20
2023-08-16T17:24:30.262Z,24.20
2023-08-16T17:26:59.392Z,24.00
2023-08-16T17:29:27.582Z,23.80
2023-08-16T17:31:56.143Z,23.70
2023-08-16T17:34:24.367Z,23.50
2023-08-16T17:36:52.497Z,23.30
2023-08-16T17:39:21.509Z,23.10
2023-08-16T17:41:51.198Z,22.90
2023-08-16T17:44:20.040Z,22.70
2023-08-16T17:46:48.302Z,22.50
2023-08-16T17:49:16.458Z,22.40
2023-08-16T17:51:44.641Z,22.30
2023-08-16T17:54:13.340Z,22.10
2023-08-16T17:56:41.729Z,22.00
2023-08-16T17:59:11.258Z,21.80
2023-08-16T18:01:59.128Z,21.70
2023-08-16T18:04:27.597Z,21.50
2023-08-16T18:06:56.263Z,21.40
2023-08-16T18:09:24.422Z,21.20
2023-08-16T18:11:54.254Z,21.10
2023-08-16T18:14:24.425Z,21.00
2023-08-16T18:16:52.700Z,20.90
2023-08-16T18:19:21.076Z,20.80
2023-08-16T18:21:49.384Z,20.70
2023-08-16T18:24:17.688Z,20.60
2023-08-16T18:26:45.873Z,20.50
2023-08-16T18:29:14.068Z,20.40
2023-08-16T18:31:44.008Z,20.20
2023-08-16T18:34:12.663Z,20.20
2023-08-16T18:36:41.234Z,20.00
2023-08-16T18:39:09.631Z,20.00
2023-08-16T18:41:37.762Z,19.90
2023-08-16T18:44:07.593Z,19.80
2023-08-16T18:46:36.003Z,19.70
2023-08-16T18:49:05.711Z,19.60
2023-08-16T18:51:33.938Z,19.50
2023-08-16T18:54:02.054Z,19.40
2023-08-16T18:56:30.255Z,19.40
2023-08-16T18:58:58.730Z,19.30
2023-08-16T19:01:26.964Z,19.20
2023-08-16T19:03:55.796Z,19.10
2023-08-16T19:06:25.584Z,19.10
2023-08-16T19:08:56.073Z,19.00
2023-08-16T19:11:24.279Z,18.90
2023-08-16T19:13:52.469Z,18.90
2023-08-16T19:16:20.646Z,18.80
2023-08-16T19:18:48.908Z,18.80
2023-08-16T19:21:18.012Z,18.70
2023-08-16T19:23:47.739Z,18.70
2023-08-16T19:26:16.392Z,18.70
2023-08-16T19:28:44.992Z,18.70
2023-08-16T19:31:13.500Z,18.60
2023-08-16T19:33:42.132Z,18.60
2023-08-16T19:36:10.338Z,18.50
2023-08-16T19:38:38.551Z,18.50
2023-08-16T19:41:08.456Z,18.40
2023-08-16T19:43:36.921Z,18.40
2023-08-16T19:46:05.835Z,18.30
2023-08-16T19:48:33.987Z,18.30
2023-08-16T19:51:02.354Z,18.20
2023-08-16T19:53:31.652Z,18.20
2023-08-16T19:56:00.183Z,18.20
2023-08-16T19:58:30.397Z,18.10
2023-08-16T20:01:00.157Z,18.10
2023-08-16T20:03:28.491Z,18.00
2023-08-16T20:05:56.967Z,18.00
2023-08-16T20:08:25.168Z,17.90
2023-08-16T20:10:54.163Z,17.90
2023-08-16T20:13:22.465Z,17.90
2023-08-16T20:15:52.854Z,17.90
2023-08-16T20:18:21.722Z,17.90
2023-08-16T20:20:49.975Z,17.90
2023-08-16T20:23:18.417Z,17.90
2023-08-16T20:25:46.580Z,17.90
2023-08-16T20:28:15.347Z,17.90
2023-08-16T20:30:44.070Z,17.90
2023-08-16T20:33:14.056Z,17.90
2023-08-16T20:35:42.272Z,17.90
2023-08-16T20:38:11.083Z,17.90
2023-08-16T20:40:39.868Z,17.80
2023-08-16T20:43:08.187Z,17.80
2023-08-16T20:45:36.628Z,17.70
2023-08-16T20:48:05.358Z,17.70
2023-08-16T20:50:35.785Z,17.60
2023-08-16T20:53:04.238Z,17.50
2023-08-16T20:55:32.504Z,17.50
2023-08-16T20:58:01.071Z,17.40
2023-08-16T21:00:29.269Z,17.40
2023-08-16T21:02:57.483Z,17.40
2023-08-16T21:05:26.228Z,17.30
2023-08-16T21:07:56.029Z,17.30
2023-08-16T21:10:25.248Z,17.20
2023-08-16T21:12:54.031Z,17.20
2023-08-16T21:15:22.632Z,17.20
2023-08-16T21:17:51.042Z,17.20
2023-08-16T21:20:22.700Z,17.20
2023-08-16T21:22:53.625Z,17.20
2023-08-16T21:25:23.107Z,17.20
2023-08-16T21:27:52.112Z,17.30
2023-08-16T21:30:21.008Z,17.30
2023-08-16T21:32:49.224Z,17.30
2023-08-16T21:35:18.194Z,17.30
2023-08-16T21:37:46.389Z,17.30
2023-08-16T21:40:14.773Z,17.30
2023-08-16T21:42:44.295Z,17.40
2023-08-16T21:45:13.099Z,17.30
2023-08-16T21:47:41.718Z,17.30
2023-08-16T21:50:10.578Z,17.30
2023-08-16T21:52:39.056Z,17.30
2023-08-16T21:55:07.792Z,17.40
2023-08-16T21:57:36.209Z,17.40
2023-08-16T22:00:08.239Z,17.40
2023-08-16T22:02:36.924Z,17.40
2023-08-16T22:05:09.278Z,17.40
2023-08-16T22:07:37.460Z,17.40
2023-08-16T22:10:09.081Z,17.40
2023-08-16T22:12:37.736Z,17.40
2023-08-16T22:15:08.789Z,17.30
2023-08-16T22:17:37.593Z,17.30
2023-08-16T22:20:07.158Z,17.30
2023-08-16T22:22:35.594Z,17.30
2023-08-16T22:25:04.839Z,17.20
2023-08-16T22:27:33.294Z,17.20
2023-08-16T22:30:01.521Z,17.20
2023-08-16T22:32:31.858Z,17.20
2023-08-16T22:35:00.158Z,17.20
2023-08-16T22:37:28.617Z,17.20
2023-08-16T22:39:57.591Z,17.20
2023-08-16T22:42:27.082Z,17.20
2023-08-16T22:49:16.131Z,17.20
2023-08-16T22:51:44.343Z,17.20
2023-08-16T22:54:12.606Z,17.20
2023-08-16T22:56:40.962Z,17.20
2023-08-16T22:59:09.401Z,17.20
2023-08-16T23:01:37.636Z,17.20
2023-08-16T23:04:06.243Z,17.20
2023-08-16T23:06:36.361Z,17.30
2023-08-16T23:09:06.487Z,17.30
2023-08-16T23:11:34.831Z,17.30
2023-08-16T23:14:03.054Z,17.30
2023-08-16T23:16:31.365Z,17.30
2023-08-16T23:19:01.504Z,17.40
2023-08-16T23:21:29.769Z,17.40
2023-08-16T23:23:59.508Z,17.40
2023-08-16T23:26:27.827Z,17.40
2023-08-16T23:28:55.981Z,17.40
2023-08-16T23:31:24.383Z,17.50
2023-08-16T23:33:52.500Z,17.40
2023-08-16T23:36:20.652Z,17.50
2023-08-16T23:38:48.972Z,17.50
2023-08-16T23:41:18.595Z,17.50
2023-08-16T23:43:47.207Z,17.50
2023-08-16T23:46:15.595Z,17.40
2023-08-16T23:48:43.874Z,17.40
2023-08-16T23:51:12.109Z,17.40
2023-08-16T23:53:40.386Z,17.40
2023-08-16T23:56:08.591Z,17.40
2023-08-16T23:58:38.304Z,17.30
